Time;durP1;ratioP1;P1;durP2;ratioP2;P2;SDS_P1;SDS_P2;PMS_P1;PMS_P2;Temp;Humidity;BMP_temperature;BMP_pressure;BME280_temperature;BME280_humidity;BME280_pressure;Samples;Min_cycle;Max_cycle;Signal;HPM_P1;HPM_P2
2023/09/04 00:00:55;;;;;;;4.72;2.63;;;;;;;;;;5013698;27;92621;-63
2023/09/04 00:03:22;;;;;;;2.75;2.47;;;;;;;;;;5017457;27;92873;-62
2023/09/04 00:05:49;;;;;;;2.80;2.38;;;;;;;;;;5013430;27;93078;-61
2023/09/04 00:08:15;;;;;;;5.30;2.40;;;;;;;;;;5017015;27;93111;-62
2023/09/04 00:10:42;;;;;;;3.05;2.05;;;;;;;;;;5015464;27;95017;-61
2023/09/04 00:13:08;;;;;;;4.60;2.20;;;;;;;;;;5020824;27;92513;-61
2023/09/04 00:15:35;;;;;;;6.22;2.63;;;;;;;;;;5012586;27;93363;-61
2023/09/04 00:18:01;;;;;;;5.82;2.72;;;;;;;;;;5014697;27;92451;-61
2023/09/04 00:20:28;;;;;;;2.35;2.15;;;;;;;;;;5016832;28;96016;-62
2023/09/04 00:22:55;;;;;;;4.30;2.00;;;;;;;;;;5014647;27;93817;-62
2023/09/04 00:25:22;;;;;;;5.93;2.13;;;;;;;;;;5014965;27;92561;-62
2023/09/04 00:27:48;;;;;;;4.47;3.03;;;;;;;;;;5018368;27;93164;-62
2023/09/04 00:30:15;;;;;;;5.40;2.05;;;;;;;;;;5017715;27;93548;-62
2023/09/04 00:32:41;;;;;;;2.70;2.20;;;;;;;;;;5013171;27;92561;-62
2023/09/04 00:35:12;;;;;;;3.33;2.28;;;;;;;;;;5013924;27;94756;-62
2023/09/04 00:37:40;;;;;;;4.13;2.30;;;;;;;;;;5013719;27;92591;-62
2023/09/04 00:40:07;;;;;;;2.90;2.60;;;;;;;;;;5012893;27;94120;-62
2023/09/04 00:42:33;;;;;;;2.75;2.55;;;;;;;;;;5011986;27;94359;-62
2023/09/04 00:45:00;;;;;;;3.45;2.22;;;;;;;;;;5012952;27;92547;-62
2023/09/04 00:47:27;;;;;;;3.80;2.50;;;;;;;;;;5019068;27;93091;-62
2023/09/04 00:49:54;;;;;;;2.80;2.60;;;;;;;;;;5011718;27;93059;-62
2023/09/04 00:52:22;;;;;;;5.18;2.60;;;;;;;;;;5013511;27;91846;-61
2023/09/04 00:54:49;;;;;;;2.65;2.38;;;;;;;;;;5012326;27;93398;-61
2023/09/04 00:57:15;;;;;;;3.17;2.88;;;;;;;;;;5015576;27;93387;-61
2023/09/04 00:59:42;;;;;;;5.60;2.45;;;;;;;;;;5011281;27;95313;-62
2023/09/04 01:02:09;;;;;;;9.27;2.80;;;;;;;;;;5011971;27;93287;-61
2023/09/04 01:04:35;;;;;;;3.40;2.60;;;;;;;;;;5015889;27;92553;-61
2023/09/04 01:07:02;;;;;;;4.70;2.72;;;;;;;;;;5017621;27;93043;-61
2023/09/04 01:09:28;;;;;;;3.00;2.70;;;;;;;;;;5012423;27;93460;-62
2023/09/04 01:12:01;;;;;;;6.78;2.60;;;;;;;;;;5011532;27;92522;-62
2023/09/04 01:14:28;;;;;;;4.72;2.45;;;;;;;;;;5012034;27;93103;-61
2023/09/04 01:16:55;;;;;;;7.47;3.03;;;;;;;;;;5017811;27;93592;-61
2023/09/04 01:19:21;;;;;;;3.13;2.42;;;;;;;;;;5017168;27;93672;-62
2023/09/04 01:21:48;;;;;;;3.35;2.58;;;;;;;;;;5012253;27;93346;-62
2023/09/04 01:24:14;;;;;;;3.00;2.70;;;;;;;;;;5011080;27;94966;-61
2023/09/04 01:26:59;;;;;;;3.35;3.00;;;;;;;;;;5012949;27;95553;-60
2023/09/04 01:29:35;;;;;;;4.35;3.22;;;;;;;;;;5025677;28;95557;-61
2023/09/04 01:32:18;;;;;;;7.97;2.67;;;;;;;;;;5015751;27;92355;-61
2023/09/04 01:34:46;;;;;;;3.55;3.10;;;;;;;;;;5015829;27;93128;-61
2023/09/04 01:37:13;;;;;;;6.20;2.90;;;;;;;;;;5015649;27;93350;-62
2023/09/04 01:39:40;;;;;;;3.95;3.30;;;;;;;;;;5018425;27;92888;-62
2023/09/04 01:42:06;;;;;;;3.28;2.92;;;;;;;;;;5016260;27;93793;-62
2023/09/04 01:44:33;;;;;;;5.03;2.80;;;;;;;;;;5015123;27;92476;-62
2023/09/04 01:47:00;;;;;;;4.57;2.83;;;;;;;;;;5022608;27;93112;-62
2023/09/04 01:49:26;;;;;;;7.15;2.85;;;;;;;;;;5012969;27;95829;-62
2023/09/04 01:51:53;;;;;;;5.70;3.72;;;;;;;;;;5015714;27;92573;-61
2023/09/04 01:54:20;;;;;;;6.90;2.97;;;;;;;;;;5015543;27;93149;-61
2023/09/04 01:56:46;;;;;;;4.82;2.90;;;;;;;;;;5018822;27;94761;-61
2023/09/04 01:59:12;;;;;;;3.30;3.03;;;;;;;;;;5014805;27;92685;-61
2023/09/04 02:01:39;;;;;;;4.45;2.80;;;;;;;;;;5018071;27;93139;-61
2023/09/04 02:04:05;;;;;;;4.93;2.72;;;;;;;;;;5014921;27;92426;-61
2023/09/04 02:06:31;;;;;;;3.58;3.28;;;;;;;;;;5021460;27;93419;-61
2023/09/04 02:08:58;;;;;;;9.38;2.90;;;;;;;;;;5017322;27;94541;-61
2023/09/04 02:11:24;;;;;;;8.07;3.17;;;;;;;;;;5015285;27;92684;-61
2023/09/04 02:13:50;;;;;;;8.63;2.80;;;;;;;;;;5017654;27;94955;-61
2023/09/04 02:16:17;;;;;;;7.82;2.80;;;;;;;;;;5016217;27;93411;-62
2023/09/04 02:18:43;;;;;;;6.57;2.90;;;;;;;;;;5016028;27;92407;-61
2023/09/04 02:21:10;;;;;;;8.32;3.15;;;;;;;;;;5015302;27;94066;-61
2023/09/04 02:23:36;;;;;;;2.88;2.67;;;;;;;;;;5017879;27;94477;-61
2023/09/04 02:26:02;;;;;;;2.75;2.50;;;;;;;;;;5018427;27;92968;-61
2023/09/04 02:28:29;;;;;;;2.90;2.70;;;;;;;;;;5015117;27;93457;-61
2023/09/04 02:30:56;;;;;;;5.90;3.38;;;;;;;;;;5020416;27;92127;-61
2023/09/04 02:33:22;;;;;;;5.50;2.72;;;;;;;;;;5014304;27;92569;-61
2023/09/04 02:35:49;;;;;;;3.20;2.90;;;;;;;;;;5018408;27;93466;-60
2023/09/04 02:38:17;;;;;;;5.72;2.53;;;;;;;;;;5013147;27;95108;-61
2023/09/04 02:40:44;;;;;;;6.35;2.70;;;;;;;;;;5027414;27;96448;-61
2023/09/04 02:43:10;;;;;;;5.47;2.47;;;;;;;;;;5018580;27;93354;-61
2023/09/04 02:45:36;;;;;;;4.05;2.60;;;;;;;;;;5019467;27;92807;-61
2023/09/04 02:48:03;;;;;;;5.82;2.63;;;;;;;;;;5018926;27;93273;-61
2023/09/04 02:50:29;;;;;;;3.83;2.53;;;;;;;;;;5013975;27;92505;-61
2023/09/04 02:52:56;;;;;;;7.38;2.80;;;;;;;;;;5014713;27;94213;-61
2023/09/04 02:55:22;;;;;;;3.75;2.55;;;;;;;;;;5015226;27;92709;-61
2023/09/04 02:57:48;;;;;;;7.50;2.80;;;;;;;;;;5017579;27;92427;-61
2023/09/04 03:00:15;;;;;;;8.40;2.95;;;;;;;;;;5017988;27;93487;-61
2023/09/04 03:02:41;;;;;;;4.43;2.95;;;;;;;;;;5016757;27;95810;-61
2023/09/04 03:05:08;;;;;;;5.47;2.85;;;;;;;;;;5014473;27;92426;-61
2023/09/04 03:07:35;;;;;;;2.72;2.53;;;;;;;;;;5023063;27;93061;-61
2023/09/04 03:10:01;;;;;;;3.67;2.63;;;;;;;;;;5017060;27;92383;-61
2023/09/04 03:12:31;;;;;;;5.38;2.85;;;;;;;;;;5013369;27;94089;-60
2023/09/04 03:14:59;;;;;;;2.47;2.33;;;;;;;;;;5013777;27;94954;-60
2023/09/04 03:17:27;;;;;;;4.53;2.88;;;;;;;;;;5021109;27;92466;-61
2023/09/04 03:19:56;;;;;;;3.20;2.90;;;;;;;;;;5012227;27;93126;-59
2023/09/04 03:22:22;;;;;;;9.60;2.92;;;;;;;;;;5014100;27;93469;-59
2023/09/04 03:24:49;;;;;;;5.72;2.50;;;;;;;;;;5012751;27;92562;-59
2023/09/04 03:27:16;;;;;;;3.83;2.42;;;;;;;;;;5023744;27;95131;-59
2023/09/04 03:29:42;;;;;;;2.28;2.08;;;;;;;;;;5014350;27;92564;-60
2023/09/04 03:32:09;;;;;;;2.40;2.20;;;;;;;;;;5019461;27;94099;-60
2023/09/04 03:34:36;;;;;;;3.85;2.45;;;;;;;;;;5013433;27;94441;-59
2023/09/04 03:37:03;;;;;;;5.45;2.95;;;;;;;;;;5018234;27;92438;-60
2023/09/04 03:39:33;;;;;;;3.67;3.35;;;;;;;;;;5014026;27;94137;-59
2023/09/04 03:42:00;;;;;;;3.05;2.75;;;;;;;;;;5013628;27;93335;-61
2023/09/04 03:44:26;;;;;;;5.40;2.80;;;;;;;;;;5017566;27;91743;-60
2023/09/04 03:46:53;;;;;;;5.15;3.28;;;;;;;;;;5025971;27;94205;-63
2023/09/04 03:49:19;;;;;;;6.60;3.15;;;;;;;;;;5017050;27;93382;-60
2023/09/04 03:51:45;;;;;;;8.82;3.30;;;;;;;;;;5011690;27;94944;-60
2023/09/04 03:54:12;;;;;;;5.90;3.55;;;;;;;;;;5012404;27;93877;-60
2023/09/04 03:56:38;;;;;;;7.65;3.67;;;;;;;;;;5012330;27;93034;-60
2023/09/04 03:59:04;;;;;;;5.45;2.70;;;;;;;;;;5014102;27;93032;-60
2023/09/04 04:01:31;;;;;;;6.90;3.40;;;;;;;;;;5013298;27;94405;-60
2023/09/04 04:03:59;;;;;;;5.50;3.65;;;;;;;;;;5013340;27;92459;-61
2023/09/04 04:06:25;;;;;;;7.78;4.40;;;;;;;;;;5013245;27;93136;-61
2023/09/04 04:08:54;;;;;;;6.90;3.97;;;;;;;;;;5013837;27;94031;-60
2023/09/04 04:11:21;;;;;;;6.47;3.80;;;;;;;;;;5020830;27;92721;-63
2023/09/04 04:13:47;;;;;;;14.95;3.65;;;;;;;;;;5016722;27;93306;-61
2023/09/04 04:16:14;;;;;;;9.05;3.20;;;;;;;;;;5013178;27;94832;-61
2023/09/04 04:18:40;;;;;;;3.65;3.03;;;;;;;;;;5014424;27;95770;-61
2023/09/04 04:21:07;;;;;;;4.57;2.90;;;;;;;;;;5016642;27;93416;-61
2023/09/04 04:23:34;;;;;;;5.70;3.75;;;;;;;;;;5012524;27;92664;-60
2023/09/04 04:26:00;;;;;;;8.18;3.58;;;;;;;;;;5013302;27;92962;-61
2023/09/04 04:28:27;;;;;;;5.97;3.47;;;;;;;;;;5012787;27;93393;-63
2023/09/04 04:30:53;;;;;;;3.15;2.85;;;;;;;;;;5011640;27;92505;-62
2023/09/04 04:33:21;;;;;;;4.57;3.10;;;;;;;;;;5015855;27;92263;-62
2023/09/04 04:35:51;;;;;;;3.78;3.22;;;;;;;;;;5012660;27;92609;-63
2023/09/04 04:38:17;;;;;;;9.15;3.10;;;;;;;;;;5012837;27;93369;-62
2023/09/04 04:40:43;;;;;;;5.70;3.90;;;;;;;;;;5011355;27;95805;-62
2023/09/04 04:43:10;;;;;;;5.32;3.47;;;;;;;;;;5011690;27;92522;-62
2023/09/04 04:45:36;;;;;;;6.82;4.13;;;;;;;;;;5013243;27;94128;-63
2023/09/04 04:48:03;;;;;;;5.70;3.40;;;;;;;;;;5016794;27;93405;-62
2023/09/04 04:50:30;;;;;;;3.55;3.03;;;;;;;;;;5012221;27;92991;-62
2023/09/04 04:52:56;;;;;;;3.90;3.53;;;;;;;;;;5012653;27;93102;-62
2023/09/04 04:55:22;;;;;;;5.57;3.53;;;;;;;;;;5016031;27;93450;-62
2023/09/04 04:57:49;;;;;;;4.22;3.53;;;;;;;;;;5012686;27;93221;-63
2023/09/04 05:00:15;;;;;;;5.60;4.13;;;;;;;;;;5011837;27;93509;-62
2023/09/04 05:02:42;;;;;;;5.50;3.83;;;;;;;;;;5017069;27;92569;-62
2023/09/04 05:05:08;;;;;;;5.07;4.18;;;;;;;;;;5013995;27;95135;-62
2023/09/04 05:07:35;;;;;;;4.88;4.13;;;;;;;;;;5015432;27;93407;-62
2023/09/04 05:10:01;;;;;;;9.95;4.28;;;;;;;;;;5015423;27;92454;-62
2023/09/04 05:12:27;;;;;;;6.57;4.10;;;;;;;;;;5015876;27;93164;-61
2023/09/04 05:14:54;;;;;;;10.38;4.10;;;;;;;;;;5015712;27;94429;-61
2023/09/04 05:17:20;;;;;;;4.30;3.78;;;;;;;;;;5022917;27;92406;-61
2023/09/04 05:19:47;;;;;;;7.55;3.53;;;;;;;;;;5014665;27;93257;-61
2023/09/04 05:22:13;;;;;;;5.45;3.83;;;;;;;;;;5016573;27;91625;-61
2023/09/04 05:24:40;;;;;;;7.30;4.05;;;;;;;;;;5015373;27;93481;-61
2023/09/04 05:27:06;;;;;;;6.53;3.83;;;;;;;;;;5015138;27;93481;-61
2023/09/04 05:29:32;;;;;;;4.10;3.58;;;;;;;;;;5013026;27;94978;-61
2023/09/04 05:31:59;;;;;;;5.50;3.50;;;;;;;;;;5017636;27;95824;-62
2023/09/04 05:34:25;;;;;;;7.18;3.63;;;;;;;;;;5015386;27;93399;-61
2023/09/04 05:36:53;;;;;;;4.25;3.65;;;;;;;;;;5017963;27;92628;-61
2023/09/04 05:39:19;;;;;;;3.80;3.50;;;;;;;;;;5015379;27;94505;-61
2023/09/04 05:41:46;;;;;;;5.18;3.67;;;;;;;;;;5015450;27;92788;-61
2023/09/04 05:44:12;;;;;;;9.07;3.85;;;;;;;;;;5014532;27;92966;-61
2023/09/04 05:46:38;;;;;;;5.15;3.60;;;;;;;;;;5020104;27;92647;-62
2023/09/04 05:49:05;;;;;;;3.95;3.55;;;;;;;;;;5015038;27;92596;-61
2023/09/04 05:51:31;;;;;;;6.32;3.88;;;;;;;;;;5015227;27;93418;-60
2023/09/04 05:53:58;;;;;;;6.85;4.07;;;;;;;;;;5016891;27;95855;-61
2023/09/04 05:56:24;;;;;;;6.25;4.10;;;;;;;;;;5015722;27;92616;-61
2023/09/04 05:58:51;;;;;;;4.50;3.70;;;;;;;;;;5021431;27;94230;-61
2023/09/04 06:01:18;;;;;;;4.70;3.60;;;;;;;;;;5028420;27;92565;-61
2023/09/04 06:03:45;;;;;;;7.40;4.30;;;;;;;;;;5015482;27;94634;-61
2023/09/04 06:06:12;;;;;;;7.20;3.72;;;;;;;;;;5014682;27;93954;-61
2023/09/04 06:08:38;;;;;;;7.55;4.13;;;;;;;;;;5014226;27;92594;-61
2023/09/04 06:11:05;;;;;;;9.23;4.55;;;;;;;;;;5015728;27;93522;-61
2023/09/04 06:13:32;;;;;;;7.38;4.30;;;;;;;;;;5015081;27;92862;-60
2023/09/04 06:15:59;;;;;;;7.63;4.55;;;;;;;;;;5018286;27;92479;-61
2023/09/04 06:18:29;;;;;;;7.30;4.00;;;;;;;;;;5017976;27;94739;-61
2023/09/04 06:20:56;;;;;;;6.65;3.88;;;;;;;;;;5018326;27;93403;-61
2023/09/04 06:23:23;;;;;;;7.40;3.88;;;;;;;;;;5014638;27;92897;-61
2023/09/04 06:25:49;;;;;;;5.97;4.00;;;;;;;;;;5014079;27;94417;-60
2023/09/04 06:28:16;;;;;;;6.85;4.55;;;;;;;;;;5015113;27;92493;-60
2023/09/04 06:30:44;;;;;;;9.50;5.18;;;;;;;;;;5017165;27;93110;-61
2023/09/04 06:33:11;;;;;;;11.30;5.28;;;;;;;;;;5014790;27;93480;-61
2023/09/04 06:35:37;;;;;;;7.25;4.43;;;;;;;;;;5014805;27;91884;-61
2023/09/04 06:38:04;;;;;;;9.15;5.32;;;;;;;;;;5014073;27;92739;-61
2023/09/04 06:40:30;;;;;;;7.03;4.68;;;;;;;;;;5014170;27;94880;-61
2023/09/04 06:42:57;;;;;;;13.45;5.55;;;;;;;;;;5024209;27;94887;-61
2023/09/04 06:45:23;;;;;;;13.15;5.78;;;;;;;;;;5014589;27;93483;-61
2023/09/04 06:47:53;;;;;;;8.93;5.85;;;;;;;;;;5014820;27;92473;-61
2023/09/04 06:50:19;;;;;;;7.07;5.93;;;;;;;;;;5014204;27;93201;-61
2023/09/04 06:52:45;;;;;;;9.75;7.03;;;;;;;;;;5013816;27;93477;-61
2023/09/04 06:55:12;;;;;;;12.20;7.10;;;;;;;;;;5014586;27;92962;-61
2023/09/04 06:57:38;;;;;;;11.90;7.18;;;;;;;;;;5019366;27;94245;-61
2023/09/04 07:00:09;;;;;;;12.80;7.20;;;;;;;;;;5017688;27;94119;-61
2023/09/04 07:02:35;;;;;;;12.07;6.72;;;;;;;;;;5013694;27;92481;-61
2023/09/04 07:05:03;;;;;;;11.63;8.63;;;;;;;;;;5029604;27;93351;-61
2023/09/04 07:07:30;;;;;;;20.33;8.82;;;;;;;;;;5012767;27;94922;-60
2023/09/04 07:09:57;;;;;;;10.63;8.48;;;;;;;;;;5013607;27;94209;-60
2023/09/04 07:12:23;;;;;;;16.30;10.13;;;;;;;;;;5012926;27;93368;-61
2023/09/04 07:14:49;;;;;;;22.15;9.52;;;;;;;;;;5012971;27;92472;-61
2023/09/04 07:17:16;;;;;;;15.75;9.48;;;;;;;;;;5014906;27;93273;-61
2023/09/04 07:19:42;;;;;;;11.00;9.60;;;;;;;;;;5013033;27;94455;-60
2023/09/04 07:22:10;;;;;;;14.60;8.60;;;;;;;;;;5014176;27;92563;-61
2023/09/04 07:24:37;;;;;;;12.52;9.43;;;;;;;;;;5016510;27;93021;-61
2023/09/04 07:27:03;;;;;;;17.20;10.43;;;;;;;;;;5013138;27;92976;-61
2023/09/04 07:29:30;;;;;;;16.10;10.38;;;;;;;;;;5013199;27;93608;-61
2023/09/04 07:31:57;;;;;;;11.98;10.43;;;;;;;;;;5014289;27;95407;-61
2023/09/04 07:34:24;;;;;;;16.45;10.57;;;;;;;;;;5013642;27;93848;-61
2023/09/04 07:36:52;;;;;;;27.13;10.57;;;;;;;;;;5012716;27;93192;-62
2023/09/04 07:39:18;;;;;;;22.20;11.02;;;;;;;;;;5011015;27;93427;-62
2023/09/04 07:41:44;;;;;;;22.70;10.82;;;;;;;;;;5012966;27;92298;-62
2023/09/04 07:44:11;;;;;;;13.98;10.30;;;;;;;;;;5012641;27;94332;-62
2023/09/04 07:46:37;;;;;;;13.65;10.05;;;;;;;;;;5016516;27;93368;-61
2023/09/04 07:49:03;;;;;;;15.10;10.38;;;;;;;;;;5013229;27;94228;-62
2023/09/04 07:51:30;;;;;;;20.55;10.73;;;;;;;;;;5012971;27;93470;-61
2023/09/04 07:54:01;;;;;;;18.92;11.40;;;;;;;;;;5013097;27;92475;-61
2023/09/04 07:56:28;;;;;;;19.98;10.85;;;;;;;;;;5010689;27;94811;-61
2023/09/04 07:59:06;;;;;;;19.42;10.95;;;;;;;;;;5012235;27;93664;-62
2023/09/04 08:01:33;;;;;;;16.25;10.00;;;;;;;;;;5012877;27;92266;-62
2023/09/04 08:04:01;;;;;;;19.75;10.88;;;;;;;;;;5012306;27;95222;-61
2023/09/04 08:06:28;;;;;;;17.92;10.15;;;;;;;;;;5012506;27;93556;-61
2023/09/04 08:08:54;;;;;;;16.63;10.25;;;;;;;;;;5019094;27;92523;-61
2023/09/04 08:11:20;;;;;;;18.25;10.77;;;;;;;;;;5012435;27;93464;-62
2023/09/04 08:13:47;;;;;;;22.48;10.77;;;;;;;;;;5012579;27;91841;-61
2023/09/04 08:16:13;;;;;;;18.15;10.60;;;;;;;;;;5017712;27;93456;-62
2023/09/04 08:18:40;;;;;;;18.42;10.38;;;;;;;;;;5015729;27;93063;-61
2023/09/04 08:21:06;;;;;;;14.43;9.77;;;;;;;;;;5010728;27;94775;-61
2023/09/04 08:23:32;;;;;;;14.00;9.80;;;;;;;;;;5013309;27;95540;-61
2023/09/04 08:25:59;;;;;;;22.67;10.77;;;;;;;;;;5012493;27;96158;-62
2023/09/04 08:28:26;;;;;;;12.45;8.88;;;;;;;;;;5011320;27;92743;-62
2023/09/04 08:30:52;;;;;;;11.02;9.10;;;;;;;;;;5019624;27;93125;-61
2023/09/04 08:33:19;;;;;;;17.38;9.63;;;;;;;;;;5014726;27;92375;-62
2023/09/04 08:35:48;;;;;;;11.20;8.20;;;;;;;;;;5020457;27;93374;-62
2023/09/04 08:38:14;;;;;;;11.45;8.88;;;;;;;;;;5014512;27;92675;-62
2023/09/04 08:40:41;;;;;;;11.70;7.93;;;;;;;;;;5011815;27;92543;-62
2023/09/04 08:43:08;;;;;;;17.05;8.88;;;;;;;;;;5017074;27;94283;-62
2023/09/04 08:45:40;;;;;;;9.43;7.30;;;;;;;;;;5010900;27;95827;-61
2023/09/04 08:48:07;;;;;;;11.50;8.13;;;;;;;;;;5013620;27;92519;-61
2023/09/04 08:50:34;;;;;;;12.07;8.73;;;;;;;;;;5016578;27;93007;-61
2023/09/04 08:53:01;;;;;;;14.23;8.25;;;;;;;;;;5015174;27;93404;-61
2023/09/04 08:55:27;;;;;;;10.48;7.72;;;;;;;;;;5015299;27;92478;-61
2023/09/04 08:57:54;;;;;;;12.43;7.85;;;;;;;;;;5021699;27;93431;-61
2023/09/04 09:00:20;;;;;;;9.35;7.82;;;;;;;;;;5011885;27;92425;-62
2023/09/04 09:02:47;;;;;;;14.90;7.97;;;;;;;;;;5012639;27;93026;-62
2023/09/04 09:05:15;;;;;;;9.93;8.02;;;;;;;;;;5012965;27;94487;-62
2023/09/04 09:07:42;;;;;;;10.57;7.25;;;;;;;;;;5011963;27;92420;-62
2023/09/04 09:10:09;;;;;;;13.23;7.95;;;;;;;;;;5011536;27;95067;-62
2023/09/04 09:12:35;;;;;;;10.65;6.95;;;;;;;;;;5012314;27;93391;-62
2023/09/04 09:15:02;;;;;;;10.05;7.57;;;;;;;;;;5015144;27;92584;-62
2023/09/04 09:17:28;;;;;;;16.92;7.18;;;;;;;;;;5014385;27;93473;-61
2023/09/04 09:19:55;;;;;;;8.55;7.00;;;;;;;;;;5011908;27;92501;-61
2023/09/04 09:22:21;;;;;;;10.90;7.05;;;;;;;;;;5016060;27;93114;-62
2023/09/04 09:24:56;;;;;;;11.60;7.10;;;;;;;;;;5011470;27;93480;-62
2023/09/04 09:27:23;;;;;;;12.60;6.18;;;;;;;;;;5012291;27;91735;-61
2023/09/04 09:29:51;;;;;;;9.02;6.57;;;;;;;;;;5012038;27;93458;-62
2023/09/04 09:32:19;;;;;;;7.50;6.05;;;;;;;;;;5015187;27;93446;-61
2023/09/04 09:34:52;;;;;;;7.28;5.60;;;;;;;;;;5013817;27;94932;-61
2023/09/04 09:37:19;;;;;;;13.70;5.43;;;;;;;;;;5012371;27;93366;-60
2023/09/04 09:39:46;;;;;;;11.05;5.60;;;;;;;;;;5015988;27;92558;-62
2023/09/04 09:42:12;;;;;;;14.20;5.32;;;;;;;;;;5014731;27;94029;-62
2023/09/04 09:44:39;;;;;;;10.13;5.60;;;;;;;;;;5011529;27;93509;-62
2023/09/04 09:47:10;;;;;;;8.18;4.65;;;;;;;;;;5014335;27;92470;-62
2023/09/04 09:49:37;;;;;;;8.57;4.63;;;;;;;;;;5012586;27;95067;-62
2023/09/04 09:52:10;;;;;;;7.32;5.22;;;;;;;;;;5015132;27;92654;-62
2023/09/04 09:54:37;;;;;;;11.40;4.50;;;;;;;;;;5016260;27;92403;-61
2023/09/04 09:57:07;;;;;;;24.58;5.45;;;;;;;;;;5017858;27;93134;-61
2023/09/04 09:59:34;;;;;;;7.82;5.60;;;;;;;;;;5018115;27;94943;-61
2023/09/04 10:02:04;;;;;;;8.77;5.03;;;;;;;;;;5018297;27;95647;-61
2023/09/04 10:04:31;;;;;;;9.05;5.57;;;;;;;;;;5015789;27;93499;-61
2023/09/04 10:06:59;;;;;;;9.93;5.55;;;;;;;;;;5015028;27;92627;-61
2023/09/04 10:09:27;;;;;;;8.27;4.90;;;;;;;;;;5018867;27;94602;-61
2023/09/04 10:11:59;;;;;;;6.45;4.82;;;;;;;;;;5018971;27;93861;-61
2023/09/04 10:14:28;;;;;;;6.20;4.55;;;;;;;;;;5018028;27;92421;-61
2023/09/04 10:16:56;;;;;;;6.97;4.20;;;;;;;;;;5017222;27;93047;-61
2023/09/04 10:19:24;;;;;;;5.85;4.03;;;;;;;;;;5018135;27;93390;-61
2023/09/04 10:21:56;;;;;;;7.75;4.05;;;;;;;;;;5014068;27;93120;-61
2023/09/04 10:24:28;;;;;;;7.15;4.65;;;;;;;;;;5021743;27;96879;-61
2023/09/04 10:27:04;;;;;;;7.00;4.10;;;;;;;;;;5018537;27;92434;-61
2023/09/04 10:29:31;;;;;;;15.52;4.32;;;;;;;;;;5016949;27;93197;-61
2023/09/04 10:31:58;;;;;;;8.52;3.65;;;;;;;;;;5014827;27;93395;-61
2023/09/04 10:34:25;;;;;;;5.55;4.10;;;;;;;;;;5013580;27;92446;-61
2023/09/04 10:36:51;;;;;;;8.13;3.72;;;;;;;;;;5014108;27;94158;-61
2023/09/04 10:39:18;;;;;;;5.78;4.10;;;;;;;;;;5014535;27;93431;-61
2023/09/04 10:41:45;;;;;;;5.85;4.22;;;;;;;;;;5018702;27;91840;-61
2023/09/04 10:44:12;;;;;;;5.82;4.20;;;;;;;;;;5017118;27;93439;-61
2023/09/04 10:47:00;;;;;;;6.10;3.67;;;;;;;;;;5020769;27;92455;-61
2023/09/04 10:49:33;;;;;;;6.13;4.00;;;;;;;;;;5012435;27;94812;-61
2023/09/04 10:52:00;;;;;;;9.88;3.88;;;;;;;;;;5014002;27;93580;-61
2023/09/04 10:54:27;;;;;;;16.15;4.45;;;;;;;;;;5014198;27;93034;-61
2023/09/04 10:56:56;;;;;;;7.13;4.22;;;;;;;;;;5014820;27;93440;-61
2023/09/04 10:59:23;;;;;;;6.57;3.60;;;;;;;;;;5018729;27;95276;-62
2023/09/04 11:01:50;;;;;;;7.57;4.35;;;;;;;;;;5014365;27;92640;-61
2023/09/04 11:04:29;;;;;;;6.25;4.13;;;;;;;;;;5017133;27;93577;-61
2023/09/04 11:07:14;;;;;;;7.53;3.80;;;;;;;;;;5016729;27;91649;-61
2023/09/04 11:09:41;;;;;;;6.07;3.58;;;;;;;;;;5016951;27;92475;-61
2023/09/04 11:12:17;;;;;;;8.70;3.85;;;;;;;;;;5013142;27;93449;-61
2023/09/04 11:14:44;;;;;;;5.97;3.30;;;;;;;;;;5012013;27;94780;-61
2023/09/04 11:17:11;;;;;;;14.40;3.67;;;;;;;;;;5021175;27;95376;-61
2023/09/04 11:19:37;;;;;;;3.88;2.97;;;;;;;;;;5013825;27;93431;-61
2023/09/04 11:22:04;;;;;;;5.20;3.03;;;;;;;;;;5013181;27;92493;-61
2023/09/04 11:24:30;;;;;;;7.03;2.80;;;;;;;;;;5018116;27;93064;-61
2023/09/04 11:26:56;;;;;;;5.53;2.55;;;;;;;;;;5015687;27;94712;-61
2023/09/04 11:29:23;;;;;;;3.80;2.33;;;;;;;;;;5013234;27;93036;-60
2023/09/04 11:31:50;;;;;;;8.77;2.80;;;;;;;;;;5014105;27;93020;-60
2023/09/04 11:34:33;;;;;;;2.42;2.22;;;;;;;;;;5014379;27;92893;-61
2023/09/04 11:36:59;;;;;;;3.67;2.47;;;;;;;;;;5020985;27;92908;-60
2023/09/04 11:39:26;;;;;;;3.00;2.70;;;;;;;;;;5016120;27;95145;-60
2023/09/04 11:41:55;;;;;;;7.15;3.20;;;;;;;;;;5017143;27;92494;-60
2023/09/04 11:44:21;;;;;;;4.22;2.63;;;;;;;;;;5013867;27;93080;-61
2023/09/04 11:46:48;;;;;;;3.30;2.40;;;;;;;;;;5022181;27;93389;-61
2023/09/04 11:49:14;;;;;;;2.83;2.33;;;;;;;;;;5013541;27;93094;-61
2023/09/04 11:51:41;;;;;;;6.95;3.10;;;;;;;;;;5013647;27;92628;-60
2023/09/04 11:54:08;;;;;;;4.88;2.72;;;;;;;;;;5013328;27;92563;-60
2023/09/04 11:56:34;;;;;;;4.30;2.78;;;;;;;;;;5013380;27;93118;-61
2023/09/04 11:59:02;;;;;;;2.80;2.60;;;;;;;;;;5012444;27;93384;-60
2023/09/04 12:01:30;;;;;;;6.30;2.75;;;;;;;;;;5012584;27;92551;-60
2023/09/04 12:03:56;;;;;;;5.72;2.65;;;;;;;;;;5016277;27;94818;-61
2023/09/04 12:06:27;;;;;;;13.43;2.67;;;;;;;;;;5012976;27;93544;-60
2023/09/04 12:08:54;;;;;;;6.65;2.53;;;;;;;;;;5015543;27;92560;-61
2023/09/04 12:11:21;;;;;;;5.88;3.08;;;;;;;;;;5016804;27;93394;-60
2023/09/04 12:13:48;;;;;;;3.33;2.50;;;;;;;;;;5012782;27;92625;-60
2023/09/04 12:16:15;;;;;;;3.92;2.70;;;;;;;;;;5015755;27;93068;-61
2023/09/04 12:18:42;;;;;;;5.43;2.17;;;;;;;;;;5013678;27;93620;-59
2023/09/04 12:21:09;;;;;;;3.60;2.45;;;;;;;;;;5013290;27;91798;-59
2023/09/04 12:23:46;;;;;;;4.75;2.25;;;;;;;;;;5015107;27;92557;-60
2023/09/04 12:26:13;;;;;;;4.25;2.40;;;;;;;;;;5013699;27;93432;-59
2023/09/04 12:28:40;;;;;;;2.78;2.03;;;;;;;;;;5009732;27;95117;-60
2023/09/04 12:31:08;;;;;;;6.80;2.20;;;;;;;;;;5015522;27;96446;-60
2023/09/04 12:33:41;;;;;;;8.85;2.65;;;;;;;;;;5012498;27;92534;-60
2023/09/04 12:36:08;;;;;;;4.32;2.40;;;;;;;;;;5016251;27;93304;-60
2023/09/04 12:38:35;;;;;;;3.30;2.10;;;;;;;;;;5012158;27;93493;-60
2023/09/04 12:41:02;;;;;;;3.90;2.00;;;;;;;;;;5012000;27;92564;-61
2023/09/04 12:43:28;;;;;;;3.95;2.20;;;;;;;;;;5016595;27;93335;-61
2023/09/04 12:45:55;;;;;;;3.33;1.90;;;;;;;;;;5016750;27;94170;-61
2023/09/04 12:48:23;;;;;;;2.30;1.85;;;;;;;;;;5013920;27;93089;-61
2023/09/04 12:50:49;;;;;;;6.40;2.03;;;;;;;;;;5011890;27;93663;-61
2023/09/04 12:53:16;;;;;;;4.88;1.92;;;;;;;;;;5013018;27;96667;-61
2023/09/04 12:55:42;;;;;;;4.43;2.10;;;;;;;;;;5010655;27;96825;-61
2023/09/04 12:58:09;;;;;;;3.63;1.80;;;;;;;;;;5028043;27;95439;-61
2023/09/04 13:00:37;;;;;;;5.18;1.60;;;;;;;;;;5009890;27;94361;-61
2023/09/04 13:03:04;;;;;;;1.70;1.60;;;;;;;;;;5013247;27;95175;-61
2023/09/04 13:05:31;;;;;;;2.13;1.77;;;;;;;;;;5010247;27;95548;-61
2023/09/04 13:07:57;;;;;;;4.13;1.60;;;;;;;;;;5014712;27;94690;-61
2023/09/04 13:10:24;;;;;;;1.90;1.80;;;;;;;;;;5009658;27;95609;-61
2023/09/04 13:12:50;;;;;;;3.20;1.33;;;;;;;;;;5010420;27;96760;-61
2023/09/04 13:15:17;;;;;;;1.52;1.30;;;;;;;;;;5013588;27;94711;-61
2023/09/04 13:17:43;;;;;;;1.93;1.43;;;;;;;;;;5011138;27;98243;-61
2023/09/04 13:20:10;;;;;;;7.10;1.50;;;;;;;;;;5013415;27;95602;-61
2023/09/04 13:22:37;;;;;;;3.37;1.77;;;;;;;;;;5011312;27;95515;-62
2023/09/04 13:25:04;;;;;;;2.30;1.77;;;;;;;;;;5009989;27;95859;-62
2023/09/04 13:27:31;;;;;;;7.20;1.55;;;;;;;;;;5013697;27;94892;-61
2023/09/04 13:29:57;;;;;;;3.17;1.60;;;;;;;;;;5013466;27;95414;-61
2023/09/04 13:32:23;;;;;;;4.45;1.70;;;;;;;;;;5012363;27;95975;-61
2023/09/04 13:34:50;;;;;;;11.18;1.80;;;;;;;;;;5013959;27;96258;-61
2023/09/04 13:37:16;;;;;;;4.95;1.77;;;;;;;;;;5017142;27;96003;-61
2023/09/04 13:39:43;;;;;;;3.50;2.10;;;;;;;;;;5013532;27;94979;-61
2023/09/04 13:42:09;;;;;;;3.53;1.77;;;;;;;;;;5014220;27;97480;-61
2023/09/04 13:44:36;;;;;;;4.55;1.70;;;;;;;;;;5014494;27;96929;-61
2023/09/04 13:47:03;;;;;;;3.53;1.60;;;;;;;;;;5016677;27;94913;-61
2023/09/04 13:49:30;;;;;;;2.50;1.95;;;;;;;;;;5012624;27;94832;-61
2023/09/04 13:51:56;;;;;;;2.97;2.00;;;;;;;;;;5013830;27;95995;-61
2023/09/04 13:54:22;;;;;;;3.83;1.63;;;;;;;;;;5016117;27;95018;-61
2023/09/04 13:56:50;;;;;;;3.38;1.58;;;;;;;;;;5016142;27;95851;-61
2023/09/04 13:59:16;;;;;;;2.03;1.27;;;;;;;;;;5025755;27;94111;-61
2023/09/04 14:01:45;;;;;;;3.65;1.55;;;;;;;;;;5024889;27;95112;-61
2023/09/04 14:04:11;;;;;;;1.63;1.45;;;;;;;;;;5013064;27;95902;-61
2023/09/04 14:06:38;;;;;;;2.63;1.60;;;;;;;;;;5009686;27;97368;-62
2023/09/04 14:09:04;;;;;;;6.50;1.67;;;;;;;;;;5021080;27;98014;-61
2023/09/04 14:11:30;;;;;;;2.10;1.50;;;;;;;;;;5012696;27;96610;-61
2023/09/04 14:13:57;;;;;;;1.70;1.50;;;;;;;;;;5021176;27;97874;-61
2023/09/04 14:16:23;;;;;;;1.30;1.20;;;;;;;;;;5017189;27;94638;-61
2023/09/04 14:18:53;;;;;;;3.35;1.42;;;;;;;;;;5021205;27;94968;-61
2023/09/04 14:21:30;;;;;;;2.75;1.33;;;;;;;;;;5014132;27;94176;-61
2023/09/04 14:23:57;;;;;;;4.85;1.70;;;;;;;;;;5013930;27;93506;-61
2023/09/04 14:26:26;;;;;;;2.53;1.55;;;;;;;;;;5014294;27;93172;-62
2023/09/04 14:28:52;;;;;;;3.97;1.63;;;;;;;;;;5014111;27;93671;-61
2023/09/04 14:31:19;;;;;;;1.40;1.30;;;;;;;;;;5012826;27;97316;-61
2023/09/04 14:33:46;;;;;;;3.38;1.40;;;;;;;;;;5013425;27;93287;-61
2023/09/04 14:36:13;;;;;;;3.28;1.45;;;;;;;;;;5022304;27;93853;-60
2023/09/04 14:38:40;;;;;;;4.83;2.00;;;;;;;;;;5018529;27;93848;-60